createdAt,value
2018-08-19T00:00:49.907Z,10.47
2018-08-19T00:03:18.859Z,9.97
2018-08-19T00:05:47.385Z,10.27
2018-08-19T00:08:15.974Z,11.23
2018-08-19T00:11:01.554Z,10.80
2018-08-19T00:13:30.145Z,9.97
2018-08-19T00:15:58.718Z,11.50
2018-08-19T00:18:27.289Z,12.10
2018-08-19T00:20:56.015Z,11.23
2018-08-19T00:23:24.568Z,11.90
2018-08-19T00:25:53.129Z,11.93
2018-08-19T00:28:21.953Z,12.50
2018-08-19T00:30:50.509Z,12.03
2018-08-19T00:33:19.052Z,11.97
2018-08-19T00:35:47.618Z,12.43
2018-08-19T00:38:16.592Z,12.43
2018-08-19T00:40:45.502Z,10.30
2018-08-19T00:43:14.039Z,11.30
2018-08-19T00:45:42.621Z,10.80
2018-08-19T00:48:12.765Z,12.07
2018-08-19T00:50:41.620Z,11.33
2018-08-19T00:53:10.980Z,11.50
2018-08-19T00:55:44.849Z,11.67
2018-08-19T00:58:20.293Z,11.43
2018-08-19T01:00:48.861Z,10.93
2018-08-19T01:03:17.421Z,11.00
2018-08-19T01:05:45.965Z,10.57
2018-08-19T01:08:15.133Z,11.23
2018-08-19T01:10:43.826Z,10.43
2018-08-19T01:13:13.281Z,11.67
2018-08-19T01:15:41.861Z,11.33
2018-08-19T01:18:10.410Z,10.27
2018-08-19T01:20:38.978Z,11.70
2018-08-19T01:23:07.513Z,12.73
2018-08-19T01:25:36.098Z,12.17
2018-08-19T01:28:04.697Z,11.77
2018-08-19T01:30:33.297Z,12.83
2018-08-19T01:33:01.840Z,10.50
2018-08-19T01:35:37.643Z,12.50
2018-08-19T01:38:07.217Z,12.13
2018-08-19T01:40:36.040Z,12.00
2018-08-19T01:43:06.249Z,12.87
2018-08-19T01:45:35.175Z,12.47
2018-08-19T01:48:03.789Z,12.73
2018-08-19T01:50:32.307Z,12.20
2018-08-19T01:53:00.891Z,11.83
2018-08-19T01:55:31.004Z,10.87
2018-08-19T01:57:59.589Z,11.30
2018-08-19T02:00:28.170Z,11.93
2018-08-19T02:03:01.792Z,11.17
2018-08-19T02:05:30.511Z,10.37
2018-08-19T02:08:00.763Z,9.97
2018-08-19T02:10:30.382Z,10.87
2018-08-19T02:12:59.318Z,13.30
2018-08-19T02:15:28.952Z,10.57
2018-08-19T02:18:01.632Z,10.67
2018-08-19T02:20:32.602Z,11.37
2018-08-19T02:23:07.314Z,12.10
2018-08-19T02:25:44.591Z,10.30
2018-08-19T02:28:13.823Z,8.57
2018-08-19T02:30:54.165Z,10.63
2018-08-19T02:33:23.769Z,10.80
2018-08-19T02:36:00.714Z,11.87
2018-08-19T02:38:29.228Z,12.03
2018-08-19T02:40:57.797Z,10.40
2018-08-19T02:43:26.369Z,9.63
2018-08-19T02:45:54.965Z,10.50
2018-08-19T02:48:41.075Z,11.57
2018-08-19T02:51:11.070Z,11.20
2018-08-19T02:53:39.892Z,10.63
2018-08-19T02:56:08.502Z,10.83
2018-08-19T02:58:37.111Z,12.90
2018-08-19T03:01:05.761Z,9.60
2018-08-19T03:03:34.291Z,12.23
2018-08-19T03:06:03.439Z,13.20
2018-08-19T03:08:32.689Z,13.00
2018-08-19T03:11:01.260Z,13.90
2018-08-19T03:13:29.807Z,13.53
2018-08-19T03:15:58.341Z,13.23
2018-08-19T03:18:26.877Z,14.77
2018-08-19T03:20:55.423Z,14.50
2018-08-19T03:23:23.976Z,13.63
2018-08-19T03:25:52.514Z,13.30
2018-08-19T03:28:21.081Z,13.07
2018-08-19T03:31:04.074Z,12.80
2018-08-19T03:33:32.612Z,11.80
2018-08-19T03:36:01.173Z,12.50
2018-08-19T03:38:29.764Z,13.17
2018-08-19T03:40:58.350Z,13.10
2018-08-19T03:43:26.905Z,12.40
2018-08-19T03:45:55.453Z,13.23
2018-08-19T03:48:23.965Z,14.77
2018-08-19T03:50:52.508Z,13.63
2018-08-19T03:53:21.041Z,14.13
2018-08-19T03:55:49.608Z,14.73
2018-08-19T03:58:18.176Z,14.03
2018-08-19T04:00:46.745Z,11.10
2018-08-19T04:03:21.042Z,13.93
2018-08-19T04:05:53.191Z,15.73
2018-08-19T04:08:22.229Z,12.53
2018-08-19T04:10:51.001Z,11.73
2018-08-19T04:13:28.316Z,12.57
2018-08-19T04:15:59.292Z,12.70
2018-08-19T04:18:43.726Z,14.57
2018-08-19T04:21:16.618Z,14.67
2018-08-19T04:23:47.682Z,12.47
2018-08-19T04:26:16.454Z,13.30
2018-08-19T04:28:45.970Z,12.93
2018-08-19T04:31:20.070Z,13.67
2018-08-19T04:33:49.550Z,12.90
2018-08-19T04:36:20.105Z,12.70
2018-08-19T04:38:48.876Z,13.27
2018-08-19T04:41:17.701Z,14.77
2018-08-19T04:43:47.266Z,13.07
2018-08-19T04:46:16.064Z,12.83
2018-08-19T04:48:46.085Z,14.17
2018-08-19T04:51:14.966Z,14.90
2018-08-19T04:53:43.617Z,13.70
2018-08-19T04:56:12.462Z,13.20
2018-08-19T04:58:41.077Z,13.77
2018-08-19T05:01:09.915Z,13.70
2018-08-19T05:03:38.518Z,12.87
2018-08-19T05:06:07.273Z,12.90
2018-08-19T05:08:36.092Z,12.37
2018-08-19T05:11:04.714Z,11.87
2018-08-19T05:13:33.418Z,11.37
2018-08-19T05:16:02.329Z,11.53
2018-08-19T05:18:31.404Z,10.30
2018-08-19T05:21:06.000Z,10.23
2018-08-19T05:23:34.673Z,8.80
2018-08-19T05:26:03.301Z,8.70
2018-08-19T05:28:32.121Z,9.07
2018-08-19T05:31:00.914Z,9.70
2018-08-19T05:33:29.755Z,10.27
2018-08-19T05:35:58.398Z,9.83
2018-08-19T05:38:28.566Z,10.60
2018-08-19T05:41:01.492Z,9.70
2018-08-19T05:43:30.827Z,10.60
2018-08-19T05:48:43.158Z,10.40
2018-08-19T05:51:11.785Z,12.77
2018-08-19T05:53:44.649Z,12.70
2018-08-19T05:56:13.784Z,12.13
2018-08-19T05:58:43.043Z,13.23
2018-08-19T06:01:15.283Z,12.47
2018-08-19T06:03:43.892Z,12.10
2018-08-19T06:06:12.611Z,12.37
2018-08-19T06:08:42.446Z,10.60
2018-08-19T06:11:11.158Z,11.80
2018-08-19T06:13:39.971Z,12.23
2018-08-19T06:16:08.714Z,10.60
2018-08-19T06:18:37.548Z,10.20
2018-08-19T06:21:08.232Z,10.60
2018-08-19T06:23:37.088Z,10.90
2018-08-19T06:26:09.402Z,10.10
2018-08-19T06:28:39.273Z,9.80
2018-08-19T06:31:10.146Z,9.00
2018-08-19T06:33:39.012Z,9.20
2018-08-19T06:36:08.792Z,8.73
2018-08-19T06:38:37.734Z,8.67
2018-08-19T06:41:06.841Z,10.73
2018-08-19T06:43:35.511Z,10.13
2018-08-19T06:46:04.376Z,9.73
2018-08-19T06:48:33.056Z,8.63
2018-08-19T06:51:01.809Z,9.13
2018-08-19T06:53:30.523Z,8.57
2018-08-19T06:55:59.174Z,9.57
2018-08-19T06:58:27.762Z,7.90
2018-08-19T07:00:56.380Z,8.57
2018-08-19T07:03:25.180Z,8.00
2018-08-19T07:06:06.599Z,8.93
2018-08-19T07:08:35.295Z,8.57
2018-08-19T07:11:03.952Z,8.47
2018-08-19T07:13:33.369Z,8.47
2018-08-19T07:16:01.982Z,9.40
2018-08-19T07:18:30.572Z,8.27
2018-08-19T07:20:59.246Z,8.83
2018-08-19T07:23:27.930Z,8.30
2018-08-19T07:25:56.705Z,7.60
2018-08-19T07:28:25.728Z,8.27
2018-08-19T07:30:55.413Z,7.80
2018-08-19T07:33:24.042Z,8.20
2018-08-19T07:35:55.059Z,7.20
2018-08-19T07:38:23.876Z,7.00
2018-08-19T07:40:52.492Z,7.37
2018-08-19T07:43:21.394Z,7.27
2018-08-19T07:45:50.057Z,6.43
2018-08-19T07:48:19.267Z,6.00
2018-08-19T07:50:47.970Z,6.57
2018-08-19T07:53:17.229Z,6.47
2018-08-19T07:55:45.825Z,6.73
2018-08-19T07:58:17.725Z,6.37
2018-08-19T08:00:46.658Z,6.17
2018-08-19T08:03:15.254Z,6.30
2018-08-19T08:05:46.997Z,6.03
2018-08-19T08:08:15.629Z,6.40
2018-08-19T08:10:44.241Z,5.73
2018-08-19T08:13:14.807Z,6.37
2018-08-19T08:15:49.734Z,6.20
2018-08-19T08:18:18.466Z,6.33
2018-08-19T08:20:50.865Z,7.10
2018-08-19T08:23:21.992Z,6.77
2018-08-19T08:25:50.603Z,5.80
2018-08-19T08:28:21.277Z,7.15
2018-08-19T08:30:49.902Z,6.17
2018-08-19T08:33:18.580Z,6.47
2018-08-19T08:36:02.618Z,6.35
2018-08-19T08:38:31.620Z,5.97
2018-08-19T08:41:00.336Z,6.92
2018-08-19T08:43:28.978Z,6.75
2018-08-19T08:45:58.564Z,6.40
2018-08-19T08:48:28.075Z,9.33
2018-08-19T08:50:57.253Z,6.30
2018-08-19T08:53:28.985Z,6.37
2018-08-19T08:55:57.606Z,6.75
2018-08-19T08:58:26.269Z,6.37
2018-08-19T09:00:55.101Z,5.37
2018-08-19T09:03:23.766Z,5.80
2018-08-19T09:05:52.524Z,6.05
2018-08-19T09:08:21.230Z,6.78
2018-08-19T09:10:50.085Z,5.85
2018-08-19T09:13:19.209Z,6.03
2018-08-19T09:15:49.671Z,6.40
2018-08-19T09:18:18.385Z,5.87
2018-08-19T09:20:47.327Z,5.33
2018-08-19T09:23:16.386Z,6.60
2018-08-19T09:25:45.306Z,6.50
2018-08-19T09:28:14.125Z,5.78
2018-08-19T09:30:44.555Z,7.03
2018-08-19T09:33:13.909Z,6.33
2018-08-19T09:35:43.493Z,6.17
2018-08-19T09:38:23.639Z,6.28
2018-08-19T09:40:52.956Z,6.53
2018-08-19T09:43:22.494Z,5.90
2018-08-19T09:45:51.118Z,6.28
2018-08-19T09:48:19.885Z,6.20
2018-08-19T09:50:48.593Z,7.12
2018-08-19T09:53:17.105Z,7.80
2018-08-19T09:55:52.584Z,6.90
2018-08-19T09:58:22.277Z,7.17
2018-08-19T10:00:56.156Z,7.03
2018-08-19T10:03:24.834Z,5.80
2018-08-19T10:05:53.559Z,5.97
2018-08-19T10:08:22.851Z,5.67
2018-08-19T10:10:52.149Z,4.90
2018-08-19T10:13:20.737Z,4.67
2018-08-19T10:15:49.338Z,4.80
2018-08-19T10:18:18.513Z,5.53
2018-08-19T10:20:47.802Z,5.47
2018-08-19T10:23:16.440Z,5.53
2018-08-19T10:25:45.141Z,5.12
2018-08-19T10:28:13.693Z,5.55
2018-08-19T10:30:49.191Z,5.53
2018-08-19T10:33:20.263Z,5.40
2018-08-19T10:35:49.795Z,5.78
2018-08-19T10:38:19.548Z,5.50
2018-08-19T10:40:57.100Z,5.03
2018-08-19T10:43:31.860Z,5.33
2018-08-19T10:46:00.405Z,4.95
2018-08-19T10:48:28.914Z,5.00
2018-08-19T10:50:57.554Z,4.60
2018-08-19T10:53:27.855Z,5.30
2018-08-19T10:56:00.486Z,5.12
2018-08-19T10:58:29.118Z,5.10
2018-08-19T11:00:57.709Z,5.30
2018-08-19T11:03:27.120Z,5.43
2018-08-19T11:05:56.696Z,5.17
2018-08-19T11:08:26.138Z,5.17
2018-08-19T11:10:54.973Z,5.47
2018-08-19T11:13:24.930Z,5.33
2018-08-19T11:15:58.617Z,4.90
2018-08-19T11:18:29.861Z,4.92
2018-08-19T11:22:06.834Z,4.92
2018-08-19T11:24:45.109Z,5.15
2018-08-19T11:27:14.588Z,5.80
2018-08-19T11:29:43.347Z,4.97
2018-08-19T11:32:17.160Z,5.33
2018-08-19T11:34:49.457Z,4.87
2018-08-19T11:37:18.686Z,5.05
2018-08-19T11:39:47.236Z,5.07
2018-08-19T11:42:16.318Z,6.50
2018-08-19T11:44:45.200Z,4.77
2018-08-19T11:47:13.864Z,5.07
2018-08-19T11:49:42.640Z,5.00
2018-08-19T11:52:11.615Z,5.20
2018-08-19T11:54:41.102Z,4.83
2018-08-19T11:57:11.990Z,4.73
2018-08-19T11:59:44.189Z,4.28
2018-08-19T12:02:15.169Z,5.03
2018-08-19T12:04:44.201Z,4.42
2018-08-19T12:07:13.006Z,4.30
2018-08-19T12:09:45.223Z,5.03
2018-08-19T12:12:13.835Z,4.67
2018-08-19T12:14:42.398Z,5.20
2018-08-19T12:17:12.150Z,4.67
2018-08-19T12:19:42.385Z,4.55
2018-08-19T12:22:11.183Z,5.15
2018-08-19T12:24:41.912Z,4.65
2018-08-19T12:27:12.265Z,4.95
2018-08-19T12:29:41.904Z,4.17
2018-08-19T12:32:18.694Z,4.35
2018-08-19T12:34:48.593Z,4.53
2018-08-19T12:37:18.600Z,4.47
2018-08-19T12:39:47.430Z,4.15
2018-08-19T12:42:17.117Z,5.00
2018-08-19T12:44:54.245Z,5.07
2018-08-19T12:47:25.813Z,4.77
2018-08-19T12:50:00.616Z,4.28
2018-08-19T12:52:30.789Z,4.70
2018-08-19T12:55:05.078Z,4.92
2018-08-19T12:57:34.418Z,4.40
2018-08-19T13:00:11.299Z,3.80
2018-08-19T13:02:43.160Z,4.58
2018-08-19T13:05:12.672Z,4.55
2018-08-19T13:07:41.396Z,4.12
2018-08-19T13:10:09.957Z,4.22
2018-08-19T13:13:09.434Z,4.28
2018-08-19T13:15:38.037Z,4.60
2018-08-19T13:18:06.917Z,4.50
2018-08-19T13:20:35.552Z,4.42
2018-08-19T13:23:05.101Z,4.40
2018-08-19T13:25:34.273Z,4.30
2018-08-19T13:28:03.097Z,4.72
2018-08-19T13:30:32.892Z,4.87
2018-08-19T13:33:03.826Z,3.97
2018-08-19T13:35:32.640Z,4.70
2018-08-19T13:38:01.245Z,4.80
2018-08-19T13:40:29.806Z,4.63
2018-08-19T13:42:58.532Z,4.60
2018-08-19T13:45:27.362Z,5.17
2018-08-19T13:47:56.818Z,4.53
2018-08-19T13:50:26.194Z,3.80
2018-08-19T13:52:55.597Z,4.10
2018-08-19T13:55:24.231Z,4.40
2018-08-19T13:57:53.626Z,3.90
2018-08-19T14:00:23.905Z,3.95
2018-08-19T14:02:52.957Z,4.17
2018-08-19T14:05:21.604Z,4.20
2018-08-19T14:07:50.371Z,4.40
2018-08-19T14:10:19.074Z,4.53
2018-08-19T14:12:48.422Z,4.10
2018-08-19T14:15:17.010Z,4.85
2018-08-19T14:17:45.622Z,3.83
2018-08-19T14:20:14.205Z,4.10
2018-08-19T14:22:43.592Z,4.42
2018-08-19T14:25:12.581Z,4.17
2018-08-19T14:27:44.735Z,4.85
2018-08-19T14:30:15.701Z,4.40
2018-08-19T14:32:46.392Z,4.05
2018-08-19T14:35:15.074Z,4.05
2018-08-19T14:37:44.830Z,4.17
2018-08-19T14:40:19.036Z,4.03
2018-08-19T14:42:47.921Z,4.50
2018-08-19T14:45:21.747Z,4.30
2018-08-19T14:47:50.679Z,3.93
2018-08-19T14:50:20.475Z,4.67
2018-08-19T14:52:49.439Z,4.03
2018-08-19T14:55:18.265Z,4.33
2018-08-19T14:57:49.018Z,4.10
2018-08-19T15:00:19.621Z,3.90
2018-08-19T15:02:49.022Z,4.33
2018-08-19T15:05:20.521Z,4.13
2018-08-19T15:07:51.279Z,4.42
2018-08-19T15:10:24.866Z,4.28
2018-08-19T15:12:56.714Z,3.80
2018-08-19T15:15:25.845Z,4.30
2018-08-19T15:17:59.848Z,4.23
2018-08-19T15:20:39.872Z,4.10
2018-08-19T15:23:15.213Z,4.22
2018-08-19T15:25:50.252Z,4.53
2018-08-19T15:28:19.261Z,4.13
2018-08-19T15:30:49.442Z,4.80
2018-08-19T15:33:19.405Z,4.20
2018-08-19T15:35:48.645Z,4.30
2018-08-19T15:38:21.790Z,4.70
2018-08-19T15:40:50.738Z,4.57
2018-08-19T15:43:20.713Z,4.70
2018-08-19T15:45:49.487Z,4.07
2018-08-19T15:48:18.618Z,5.57
2018-08-19T15:50:47.191Z,4.47
2018-08-19T15:53:18.001Z,4.70
2018-08-19T15:55:48.710Z,4.67
2018-08-19T15:58:17.438Z,4.30
2018-08-19T16:00:47.100Z,4.63
2018-08-19T16:03:16.380Z,4.77
2018-08-19T16:05:46.034Z,5.17
2018-08-19T16:08:15.195Z,4.70
2018-08-19T16:10:45.267Z,4.53
2018-08-19T16:13:13.810Z,4.83
2018-08-19T16:15:42.989Z,4.60
2018-08-19T16:18:12.058Z,4.37
2018-08-19T16:20:44.071Z,4.50
2018-08-19T16:23:13.525Z,4.40
2018-08-19T16:25:43.481Z,5.03
2018-08-19T16:28:14.588Z,4.87
2018-08-19T16:30:43.274Z,4.83
2018-08-19T16:33:12.326Z,4.97
2018-08-19T16:35:43.197Z,4.83
2018-08-19T16:38:13.363Z,4.70
2018-08-19T16:40:42.065Z,4.37
2018-08-19T16:43:10.689Z,4.50
2018-08-19T16:45:39.558Z,4.90
2018-08-19T16:48:08.525Z,4.37
2018-08-19T16:50:38.521Z,4.60
2018-08-19T16:53:08.118Z,4.00
2018-08-19T16:55:37.073Z,4.63
2018-08-19T16:58:08.612Z,3.90
2018-08-19T17:00:37.465Z,4.60
2018-08-19T17:03:21.539Z,4.77
2018-08-19T17:05:50.822Z,4.43
2018-08-19T17:08:19.401Z,4.23
2018-08-19T17:10:48.016Z,4.40
2018-08-19T17:13:17.653Z,4.00
2018-08-19T17:15:46.879Z,4.50
2018-08-19T17:18:15.738Z,15.70
2018-08-19T17:20:44.375Z,5.43
2018-08-19T17:23:16.374Z,5.77
2018-08-19T17:25:49.420Z,5.07
2018-08-19T17:28:21.025Z,4.57
2018-08-19T17:30:54.108Z,4.40
2018-08-19T17:33:30.703Z,4.50
2018-08-19T17:36:00.339Z,4.60
2018-08-19T17:38:32.944Z,4.70
2018-08-19T17:41:02.170Z,4.40
2018-08-19T17:43:37.682Z,4.70
2018-08-19T17:46:10.563Z,5.93
2018-08-19T17:48:40.402Z,4.87
2018-08-19T17:51:21.789Z,4.97
2018-08-19T17:53:50.538Z,5.27
2018-08-19T17:56:24.751Z,4.70
2018-08-19T17:58:53.687Z,5.27
2018-08-19T18:01:24.934Z,9.30
2018-08-19T18:03:57.418Z,6.50
2018-08-19T18:06:26.945Z,4.83
2018-08-19T18:08:55.992Z,4.47
2018-08-19T18:11:25.732Z,5.03
2018-08-19T18:13:54.543Z,5.10
2018-08-19T18:16:24.095Z,5.10
2018-08-19T18:18:53.189Z,5.60
2018-08-19T18:21:21.733Z,5.17
2018-08-19T18:23:50.347Z,5.03
2018-08-19T18:26:18.892Z,5.10
2018-08-19T18:28:48.632Z,7.27
2018-08-19T18:31:20.263Z,6.53
2018-08-19T18:33:55.892Z,6.00
2018-08-19T18:36:25.672Z,5.90
2018-08-19T18:38:54.286Z,5.77
2018-08-19T18:41:28.513Z,8.30
2018-08-19T18:43:59.077Z,5.80
2018-08-19T18:46:28.121Z,5.60
2018-08-19T18:49:13.380Z,5.50
2018-08-19T18:51:45.573Z,6.00
2018-08-19T18:54:20.721Z,6.33
2018-08-19T18:56:53.877Z,5.70
2018-08-19T18:59:22.472Z,5.53
2018-08-19T19:01:51.010Z,6.43
2018-08-19T19:04:19.597Z,6.90
2018-08-19T19:06:48.234Z,6.33
2018-08-19T19:09:18.397Z,6.27
2018-08-19T19:11:49.251Z,5.90
2018-08-19T19:14:18.586Z,6.00
2018-08-19T19:16:54.265Z,6.30
2018-08-19T19:19:22.776Z,5.90
2018-08-19T19:21:57.950Z,6.37
2018-08-19T19:24:30.812Z,5.23
2018-08-19T19:26:59.341Z,6.00
2018-08-19T19:29:28.890Z,6.13
2018-08-19T19:31:58.520Z,6.10
2018-08-19T19:34:31.162Z,5.93
2018-08-19T19:37:00.353Z,6.20
2018-08-19T19:39:29.648Z,7.10
2018-08-19T19:42:04.129Z,6.47
2018-08-19T19:44:36.197Z,6.60
2018-08-19T19:47:05.561Z,6.00
2018-08-19T19:49:37.436Z,6.13
2018-08-19T19:52:05.948Z,7.07
2018-08-19T19:54:34.818Z,6.03
2018-08-19T19:57:03.494Z,6.73
2018-08-19T19:59:34.267Z,6.80
2018-08-19T20:02:03.041Z,6.77
2018-08-19T20:04:35.231Z,6.60
2018-08-19T20:07:03.902Z,6.23
2018-08-19T20:09:35.487Z,7.20
2018-08-19T20:12:05.111Z,7.60
2018-08-19T20:14:37.838Z,6.87
2018-08-19T20:17:06.377Z,6.70
2018-08-19T20:19:34.912Z,7.20
2018-08-19T20:22:04.273Z,6.57
2018-08-19T20:24:32.821Z,6.03
2018-08-19T20:27:01.377Z,6.83
2018-08-19T20:29:29.929Z,6.87
2018-08-19T20:31:58.560Z,7.30
2018-08-19T20:34:27.662Z,7.23
2018-08-19T20:36:56.222Z,7.50
2018-08-19T20:39:24.756Z,7.90
2018-08-19T20:41:53.296Z,7.67
2018-08-19T20:44:22.755Z,7.43
2018-08-19T20:46:55.789Z,7.20
2018-08-19T20:49:25.680Z,6.83
2018-08-19T20:51:55.889Z,7.20
2018-08-19T20:54:25.382Z,7.70
2018-08-19T20:56:54.052Z,7.30
2018-08-19T20:59:26.785Z,7.70
2018-08-19T21:01:56.023Z,8.03
2018-08-19T21:04:24.534Z,7.50
2018-08-19T21:06:53.248Z,6.97
2018-08-19T21:09:21.872Z,7.30
2018-08-19T21:11:51.125Z,7.73
2018-08-19T21:14:19.794Z,7.50
2018-08-19T21:16:50.172Z,8.23
2018-08-19T21:19:18.823Z,7.00
2018-08-19T21:21:47.401Z,8.27
2018-08-19T21:24:15.933Z,7.40
2018-08-19T21:26:48.805Z,8.83
2018-08-19T21:29:17.317Z,7.67
2018-08-19T21:31:45.859Z,8.30
2018-08-19T21:34:14.478Z,9.50
2018-08-19T21:36:42.997Z,8.33
2018-08-19T21:39:11.995Z,8.60
2018-08-19T21:41:51.307Z,9.10
2018-08-19T21:44:20.301Z,9.30
2018-08-19T21:46:49.043Z,8.20
2018-08-19T21:49:17.661Z,9.23
2018-08-19T21:51:46.241Z,9.50
2018-08-19T21:54:15.884Z,9.23
2018-08-19T21:56:45.144Z,8.80
2018-08-19T21:59:29.396Z,9.53
2018-08-19T22:01:59.353Z,9.93
2018-08-19T22:04:29.810Z,9.53
2018-08-19T22:06:59.259Z,8.90
2018-08-19T22:09:34.028Z,9.03
2018-08-19T22:12:03.383Z,9.50
2018-08-19T22:14:32.659Z,9.70
2018-08-19T22:17:06.584Z,9.23
2018-08-19T22:19:35.120Z,10.27
2018-08-19T22:22:03.747Z,9.77
2018-08-19T22:24:32.328Z,9.50
2018-08-19T22:27:06.163Z,8.77
2018-08-19T22:29:35.577Z,9.87
2018-08-19T22:32:04.116Z,10.00
2018-08-19T22:34:32.701Z,10.10
2018-08-19T22:37:01.561Z,8.40
2018-08-19T22:39:30.225Z,10.80
2018-08-19T22:41:58.756Z,10.77
2018-08-19T22:44:27.338Z,9.27
2018-08-19T22:46:55.889Z,8.50
2018-08-19T22:49:27.377Z,9.83
2018-08-19T22:52:01.451Z,10.27
2018-08-19T22:54:30.578Z,9.67
2018-08-19T22:56:59.121Z,9.50
2018-08-19T22:59:27.715Z,9.93
2018-08-19T23:01:56.236Z,10.00
2018-08-19T23:04:24.761Z,9.70
2018-08-19T23:06:53.813Z,10.97
2018-08-19T23:09:22.321Z,8.93
2018-08-19T23:11:58.986Z,10.07
2018-08-19T23:14:39.234Z,10.13
2018-08-19T23:17:08.628Z,10.70
2018-08-19T23:19:38.089Z,11.00
2018-08-19T23:22:07.306Z,9.90
2018-08-19T23:24:36.022Z,9.47
2018-08-19T23:27:04.673Z,11.23
2018-08-19T23:29:33.208Z,10.50
2018-08-19T23:32:01.851Z,8.90
2018-08-19T23:34:30.400Z,9.27
2018-08-19T23:36:58.921Z,10.40
2018-08-19T23:39:28.421Z,11.70
2018-08-19T23:41:58.045Z,10.60
2018-08-19T23:44:26.581Z,10.87
2018-08-19T23:46:55.116Z,11.73
2018-08-19T23:49:23.677Z,12.00
2018-08-19T23:51:52.240Z,12.10
2018-08-19T23:54:20.771Z,10.83
2018-08-19T23:56:49.312Z,11.60
2018-08-19T23:59:23.193Z,11.47
